Andale, Kansas
Current Conditions -  °F | °C
As of 4:53 PM on Thursday 18 Dec 2014 (Local Time) from KICT Reporting Station
Broken Clouds Broken Clouds  
Wind Chill: 27°   Ceiling: 1000
Heat Index: 34°   Visibility: 8mi
Dew Point: 30°   Wind: 8mph
Humidity: 85%   Direction: 20°NNE
Pressure: 30.18"   Gusts: NA
Location:  37.79°N, 97.63°W
Report Text: KICT 182253Z 02007KT 8SM BKN010 BKN055 01/M01 A3018 RMK AO2 SLP231 T00111011
Loading
Personal Weather Stations






























Interactive Weather Map New forecast layout! Learn more

10-Day Weather Forecast

Advertisements
Track Severe Weather on mobile